createdAt,value
2019-05-07T00:02:19.339Z,7.03
2019-05-07T00:04:55.284Z,6.72
2019-05-07T00:07:32.062Z,6.53
2019-05-07T00:10:08.018Z,7.17
2019-05-07T00:12:43.974Z,7.08
2019-05-07T00:15:19.943Z,7.10
2019-05-07T00:17:55.886Z,7.15
2019-05-07T00:20:32.681Z,6.65
2019-05-07T00:23:08.935Z,7.12
2019-05-07T00:25:44.893Z,6.50
2019-05-07T00:28:22.826Z,6.95
2019-05-07T00:30:58.433Z,6.80
2019-05-07T00:33:35.629Z,7.05
2019-05-07T00:36:28.164Z,6.65
2019-05-07T00:39:23.690Z,6.92
2019-05-07T00:42:04.142Z,6.45
2019-05-07T00:45:13.201Z,6.85
2019-05-07T00:47:35.717Z,7.22
2019-05-07T00:50:13.421Z,7.00
2019-05-07T00:52:49.369Z,7.30
2019-05-07T00:55:25.326Z,6.35
2019-05-07T00:58:02.373Z,5.92
2019-05-07T01:00:38.878Z,6.47
2019-05-07T01:03:14.841Z,7.00
2019-05-07T01:05:52.776Z,6.75
2019-05-07T01:08:28.497Z,6.10
2019-05-07T01:11:04.555Z,6.70
2019-05-07T01:13:40.500Z,6.70
2019-05-07T01:16:16.371Z,6.95
2019-05-07T01:18:53.775Z,6.72
2019-05-07T01:21:32.513Z,6.47
2019-05-07T01:24:08.831Z,7.10
2019-05-07T01:26:44.790Z,7.53
2019-05-07T01:29:22.602Z,7.50
2019-05-07T01:32:12.699Z,6.62
2019-05-07T01:34:52.331Z,6.97
2019-05-07T01:37:27.965Z,7.33
2019-05-07T01:40:04.037Z,7.67
2019-05-07T01:42:42.350Z,7.42
2019-05-07T01:45:17.884Z,7.92
2019-05-07T01:47:53.843Z,7.40
2019-05-07T01:50:32.094Z,7.87
2019-05-07T01:53:07.903Z,7.90
2019-05-07T01:55:43.861Z,8.10
2019-05-07T01:58:21.993Z,7.85
2019-05-07T02:00:57.655Z,7.83
2019-05-07T02:03:35.108Z,7.92
2019-05-07T02:06:13.206Z,7.75
2019-05-07T02:08:53.893Z,8.40
2019-05-07T02:11:34.147Z,7.92
2019-05-07T02:14:10.107Z,7.83
2019-05-07T02:16:46.474Z,8.53
2019-05-07T02:19:22.429Z,8.73
2019-05-07T02:21:59.512Z,8.05
2019-05-07T02:24:35.468Z,8.28
2019-05-07T02:27:12.618Z,8.35
2019-05-07T02:29:48.825Z,8.23
2019-05-07T02:32:24.773Z,8.58
2019-05-07T02:35:03.995Z,8.30
2019-05-07T02:37:48.345Z,9.13
2019-05-07T02:40:22.707Z,8.48
2019-05-07T02:42:57.529Z,8.95
2019-05-07T02:45:53.590Z,8.73
2019-05-07T02:48:34.007Z,9.40
2019-05-07T02:51:14.446Z,9.60
2019-05-07T02:53:55.013Z,9.60
2019-05-07T02:56:33.262Z,8.75
2019-05-07T02:59:08.561Z,9.60
2019-05-07T03:01:44.734Z,9.23
2019-05-07T03:04:20.695Z,8.65
2019-05-07T03:06:56.636Z,8.80
2019-05-07T03:09:33.012Z,8.83
2019-05-07T03:12:08.969Z,9.10
2019-05-07T03:14:44.861Z,9.05
2019-05-07T03:17:24.247Z,8.98
2019-05-07T03:20:03.181Z,9.50
2019-05-07T03:22:37.907Z,9.00
2019-05-07T03:25:15.612Z,9.23
2019-05-07T03:27:53.590Z,9.33
2019-05-07T03:30:35.540Z,9.30
2019-05-07T03:33:15.694Z,8.68
2019-05-07T03:35:49.258Z,9.23
2019-05-07T03:38:25.220Z,9.40
2019-05-07T03:41:03.740Z,8.20
2019-05-07T03:43:38.969Z,8.53
2019-05-07T03:46:19.154Z,8.65
2019-05-07T03:48:55.083Z,8.18
2019-05-07T03:51:32.925Z,8.43
2019-05-07T03:54:08.633Z,7.80
2019-05-07T03:56:44.560Z,8.80
2019-05-07T03:59:23.119Z,8.00
2019-05-07T04:01:58.140Z,7.75
2019-05-07T04:04:34.095Z,7.97
2019-05-07T04:07:13.510Z,7.62
2019-05-07T04:09:47.761Z,7.42
2019-05-07T04:12:24.221Z,7.08
2019-05-07T04:15:03.417Z,7.30
2019-05-07T04:17:42.975Z,7.20
2019-05-07T04:20:19.336Z,7.90
2019-05-07T04:22:55.345Z,7.12
2019-05-07T04:25:36.532Z,7.08
2019-05-07T04:28:24.181Z,7.22
2019-05-07T04:31:02.923Z,7.30
2019-05-07T04:33:43.688Z,6.58
2019-05-07T04:36:22.768Z,7.17
2019-05-07T04:38:57.415Z,7.60
2019-05-07T04:41:33.331Z,7.17
2019-05-07T04:44:09.237Z,6.87
2019-05-07T04:46:48.116Z,7.05
2019-05-07T04:49:23.814Z,6.75
2019-05-07T04:52:05.460Z,7.30
2019-05-07T04:54:43.740Z,7.47
2019-05-07T04:57:25.985Z,7.05
2019-05-07T05:00:03.400Z,7.28
2019-05-07T05:02:43.459Z,7.20
2019-05-07T05:05:19.855Z,7.47
2019-05-07T05:07:55.846Z,7.83
2019-05-07T05:10:33.656Z,7.70
2019-05-07T05:13:09.491Z,7.53
2019-05-07T05:15:45.435Z,7.85
2019-05-07T05:18:22.040Z,7.47
2019-05-07T05:21:03.421Z,8.13
2019-05-07T05:23:41.931Z,7.58
2019-05-07T05:26:18.077Z,7.80
2019-05-07T05:28:54.035Z,7.65
2019-05-07T05:31:29.978Z,7.30
2019-05-07T05:34:05.949Z,8.03
2019-05-07T05:36:42.656Z,7.55
2019-05-07T05:39:18.670Z,8.00
2019-05-07T05:41:56.108Z,6.58
2019-05-07T05:44:33.857Z,7.37
2019-05-07T05:47:11.730Z,8.88
2019-05-07T05:49:47.522Z,8.70
2019-05-07T05:52:44.062Z,7.95
2019-05-07T05:55:22.595Z,8.38
2019-05-07T05:58:16.342Z,8.03
2019-05-07T06:00:53.958Z,7.22
2019-05-07T06:03:46.594Z,7.58
2019-05-07T06:06:24.076Z,8.58
2019-05-07T06:09:13.969Z,8.10
2019-05-07T06:11:51.988Z,7.92
2019-05-07T06:14:33.108Z,8.20
2019-05-07T06:17:32.059Z,7.97
2019-05-07T06:20:13.534Z,7.58
2019-05-07T06:23:07.606Z,7.12
2019-05-07T06:25:45.094Z,7.65
2019-05-07T06:28:22.330Z,7.12
2019-05-07T06:30:58.452Z,7.30
2019-05-07T06:33:34.409Z,7.10
2019-05-07T06:36:12.457Z,7.37
2019-05-07T06:38:49.589Z,6.90
2019-05-07T06:41:43.363Z,7.30
2019-05-07T06:44:22.367Z,7.55
2019-05-07T06:46:58.475Z,6.95
2019-05-07T06:49:34.521Z,6.20
2019-05-07T06:52:12.272Z,6.65
2019-05-07T06:54:48.378Z,6.60
2019-05-07T06:57:25.963Z,6.40
2019-05-07T07:00:12.988Z,6.30
2019-05-07T07:02:53.653Z,6.87
2019-05-07T07:05:34.215Z,6.58
2019-05-07T07:08:12.492Z,7.60
2019-05-07T07:11:02.748Z,6.58
2019-05-07T07:13:39.293Z,7.50
2019-05-07T07:16:15.240Z,6.95
2019-05-07T07:18:53.058Z,6.28
2019-05-07T07:21:28.800Z,6.92
2019-05-07T07:24:04.972Z,7.67
2019-05-07T07:26:42.224Z,7.47
2019-05-07T07:29:21.504Z,7.55
2019-05-07T07:32:02.453Z,7.20
2019-05-07T07:34:42.538Z,7.35
2019-05-07T07:37:31.998Z,7.28
2019-05-07T07:40:27.896Z,7.33
2019-05-07T07:43:07.021Z,7.62
2019-05-07T07:45:42.473Z,8.63
2019-05-07T07:48:18.744Z,8.28
2019-05-07T07:50:54.704Z,8.63
2019-05-07T07:53:33.108Z,9.30
2019-05-07T07:56:25.275Z,9.25
2019-05-07T07:59:18.042Z,8.73
2019-05-07T08:02:13.926Z,9.68
2019-05-07T08:04:49.888Z,10.43
2019-05-07T08:07:25.839Z,10.63
2019-05-07T08:10:02.684Z,10.55
2019-05-07T08:12:38.778Z,10.60
2019-05-07T08:15:20.869Z,10.48
2019-05-07T08:17:53.649Z,11.03
2019-05-07T08:20:29.706Z,12.78
2019-05-07T08:23:05.675Z,11.65
2019-05-07T08:25:52.480Z,11.28
2019-05-07T08:28:28.536Z,11.78
2019-05-07T08:31:16.267Z,10.43
2019-05-07T08:34:14.025Z,10.72
2019-05-07T08:36:48.232Z,12.30
2019-05-07T08:39:25.218Z,11.25
2019-05-07T08:42:02.050Z,10.90
2019-05-07T08:44:39.804Z,11.95
2019-05-07T08:47:17.307Z,11.78
2019-05-07T08:49:53.255Z,11.73
2019-05-07T08:52:29.208Z,10.68
2019-05-07T08:55:07.916Z,11.33
2019-05-07T08:57:46.003Z,10.98
2019-05-07T09:00:23.823Z,10.60
2019-05-07T09:03:01.648Z,10.60
2019-05-07T09:05:38.411Z,10.78
2019-05-07T09:08:14.381Z,10.93
2019-05-07T09:10:52.389Z,9.68
2019-05-07T09:13:28.136Z,8.45
2019-05-07T09:16:04.296Z,8.55
2019-05-07T09:18:42.210Z,8.65
2019-05-07T09:21:18.243Z,8.95
2019-05-07T09:23:54.145Z,9.25
2019-05-07T09:26:32.336Z,9.15
2019-05-07T09:29:11.834Z,8.93
2019-05-07T09:31:49.443Z,8.53
2019-05-07T09:34:26.937Z,8.08
2019-05-07T09:37:04.437Z,8.53
2019-05-07T09:39:42.647Z,9.60
2019-05-07T09:42:17.992Z,9.68
2019-05-07T09:44:54.049Z,9.33
2019-05-07T09:47:32.287Z,7.97
2019-05-07T09:50:09.062Z,7.97
2019-05-07T09:52:45.097Z,8.05
2019-05-07T09:58:39.061Z,9.43
2019-05-07T10:01:13.511Z,9.30
2019-05-07T10:03:49.468Z,8.68
2019-05-07T10:06:25.426Z,8.90
2019-05-07T10:09:02.871Z,7.95
2019-05-07T10:11:45.118Z,8.08
2019-05-07T10:14:22.387Z,7.65
2019-05-07T10:17:03.060Z,7.85
2019-05-07T10:19:39.029Z,7.70
2019-05-07T10:22:15.384Z,7.47
2019-05-07T10:24:52.202Z,7.45
2019-05-07T10:27:28.539Z,7.65
2019-05-07T10:30:05.166Z,7.65
2019-05-07T10:32:42.440Z,7.00
2019-05-07T10:35:18.761Z,7.15
2019-05-07T10:37:54.708Z,7.87
2019-05-07T10:40:32.579Z,5.85
2019-05-07T10:43:08.678Z,6.72
2019-05-07T10:46:02.456Z,6.60
2019-05-07T10:48:42.811Z,5.65
2019-05-07T10:51:18.859Z,5.97
2019-05-07T10:53:54.827Z,5.30
2019-05-07T10:56:32.607Z,4.47
2019-05-07T10:59:08.584Z,4.50
2019-05-07T11:01:52.422Z,4.78
2019-05-07T11:04:39.300Z,4.22
2019-05-07T11:07:06.183Z,4.90
2019-05-07T11:09:42.124Z,4.15
2019-05-07T11:12:17.998Z,4.58
2019-05-07T11:14:53.933Z,3.37
2019-05-07T11:17:41.880Z,4.28
2019-05-07T11:20:18.343Z,4.50
2019-05-07T11:22:54.301Z,4.87
2019-05-07T11:25:30.368Z,5.15
2019-05-07T11:28:06.518Z,5.20
2019-05-07T11:30:43.292Z,4.40
2019-05-07T11:33:19.260Z,4.87
2019-05-07T11:35:55.204Z,4.72
2019-05-07T11:38:33.093Z,4.35
2019-05-07T11:41:09.783Z,3.77
2019-05-07T11:43:47.375Z,4.72
2019-05-07T11:46:32.697Z,5.05
2019-05-07T11:49:19.471Z,4.62
2019-05-07T11:52:05.966Z,5.00
2019-05-07T11:54:42.147Z,5.83
2019-05-07T11:57:18.287Z,6.12
2019-05-07T11:59:54.437Z,5.87
2019-05-07T12:02:32.025Z,6.08
2019-05-07T12:05:08.988Z,7.33
2019-05-07T12:07:44.990Z,6.85
2019-05-07T12:10:22.283Z,5.95
2019-05-07T12:12:58.326Z,5.78
2019-05-07T12:15:34.292Z,6.47
2019-05-07T12:18:11.920Z,5.72
2019-05-07T12:20:48.049Z,7.15
2019-05-07T12:23:23.995Z,7.58
2019-05-07T12:26:02.168Z,5.70
2019-05-07T12:28:37.648Z,6.00
2019-05-07T12:31:22.457Z,6.53
2019-05-07T12:34:03.079Z,6.83
2019-05-07T12:36:39.028Z,6.10
2019-05-07T12:39:15.218Z,7.28
2019-05-07T12:41:52.444Z,6.33
2019-05-07T12:44:28.555Z,6.62
2019-05-07T12:47:05.894Z,6.17
2019-05-07T12:49:42.870Z,5.65
2019-05-07T12:52:22.755Z,5.50
2019-05-07T12:55:00.353Z,6.03
2019-05-07T12:57:36.314Z,6.90
2019-05-07T13:00:32.295Z,6.08
2019-05-07T13:03:09.932Z,5.95
2019-05-07T13:05:45.891Z,5.97
2019-05-07T13:08:23.016Z,7.15
2019-05-07T13:11:00.268Z,5.17
2019-05-07T13:13:36.215Z,4.28
2019-05-07T13:16:12.770Z,6.60
2019-05-07T13:18:49.571Z,6.60
2019-05-07T13:21:25.528Z,6.67
2019-05-07T13:24:07.259Z,7.10
2019-05-07T13:26:46.953Z,6.67
2019-05-07T13:29:22.831Z,6.95
2019-05-07T13:32:02.770Z,6.90
2019-05-07T13:34:39.441Z,6.47
2019-05-07T13:37:29.928Z,7.53
2019-05-07T13:40:11.937Z,7.90
2019-05-07T13:42:48.716Z,8.98
2019-05-07T13:45:33.058Z,9.18
2019-05-07T13:48:16.897Z,8.73
2019-05-07T13:50:53.159Z,8.00
2019-05-07T13:53:29.128Z,7.97
2019-05-07T13:56:05.392Z,9.38
2019-05-07T13:58:42.879Z,10.50
2019-05-07T14:01:22.837Z,27.70
2019-05-07T14:03:58.579Z,12.98
2019-05-07T14:06:43.000Z,15.32
2019-05-07T14:09:24.340Z,10.38
2019-05-07T14:14:37.425Z,8.65
2019-05-07T14:17:13.421Z,9.55
2019-05-07T14:19:49.375Z,9.98
2019-05-07T14:22:25.321Z,9.53
2019-05-07T14:25:01.297Z,8.85
2019-05-07T14:27:37.241Z,9.50
2019-05-07T14:30:13.652Z,9.78
2019-05-07T14:32:52.600Z,9.65
2019-05-07T14:35:46.414Z,8.43
2019-05-07T14:38:34.953Z,9.58
2019-05-07T14:41:15.223Z,8.13
2019-05-07T14:44:09.396Z,8.20
2019-05-07T14:46:50.740Z,7.70
2019-05-07T14:49:23.059Z,6.97
2019-05-07T14:51:59.004Z,8.00
2019-05-07T14:54:35.896Z,9.08
2019-05-07T14:57:11.882Z,10.60
2019-05-07T14:59:47.913Z,11.78
2019-05-07T15:02:24.367Z,9.53
2019-05-07T15:05:02.660Z,8.75
2019-05-07T15:07:38.237Z,8.60
2019-05-07T15:10:14.411Z,8.18
2019-05-07T15:12:54.879Z,8.15
2019-05-07T15:15:31.636Z,9.33
2019-05-07T15:18:35.523Z,10.63
2019-05-07T15:21:14.480Z,10.48
2019-05-07T15:23:52.983Z,12.60
2019-05-07T15:26:30.180Z,12.13
2019-05-07T15:29:07.774Z,10.98
2019-05-07T15:31:56.629Z,10.15
2019-05-07T15:34:34.014Z,10.45
2019-05-07T15:37:12.391Z,11.48
2019-05-07T15:39:48.895Z,10.65
2019-05-07T15:42:24.040Z,10.85
2019-05-07T15:45:02.127Z,11.33
2019-05-07T15:47:42.360Z,11.95
2019-05-07T15:50:18.349Z,11.18
2019-05-07T15:53:14.268Z,11.75
2019-05-07T15:55:52.569Z,15.70
2019-05-07T15:58:28.756Z,13.65
2019-05-07T16:01:04.821Z,12.05
2019-05-07T16:03:45.266Z,10.43
2019-05-07T16:06:22.040Z,10.95
2019-05-07T16:09:02.499Z,9.95
2019-05-07T16:11:38.872Z,11.18
2019-05-07T16:14:16.476Z,10.28
2019-05-07T16:16:52.531Z,12.10
2019-05-07T16:19:29.101Z,11.33
2019-05-07T16:22:06.588Z,12.40
2019-05-07T16:24:43.629Z,12.05
2019-05-07T16:27:19.567Z,13.05
2019-05-07T16:29:55.484Z,12.73
2019-05-07T16:32:32.870Z,12.98
2019-05-07T16:35:08.871Z,12.70
2019-05-07T16:37:44.838Z,12.70
2019-05-07T16:40:22.956Z,13.40
2019-05-07T16:42:59.017Z,12.85
2019-05-07T16:45:35.003Z,12.73
2019-05-07T16:48:11.940Z,11.28
2019-05-07T16:50:48.063Z,10.72
2019-05-07T16:53:29.740Z,11.63
2019-05-07T16:56:02.947Z,10.65
2019-05-07T16:58:46.295Z,9.93
2019-05-07T17:01:24.470Z,11.15
2019-05-07T17:04:02.601Z,11.97
2019-05-07T17:06:38.349Z,13.48
2019-05-07T17:09:14.836Z,16.20
2019-05-07T17:11:52.717Z,14.70
2019-05-07T17:14:28.572Z,13.80
2019-05-07T17:17:04.551Z,13.18
2019-05-07T17:19:42.423Z,12.55
2019-05-07T17:22:18.085Z,15.25
2019-05-07T17:24:53.972Z,19.17
2019-05-07T17:27:31.669Z,16.27
2019-05-07T17:30:07.810Z,19.70
2019-05-07T17:35:18.624Z,18.60
2019-05-07T17:38:06.091Z,19.98
2019-05-07T17:40:32.201Z,20.52
2019-05-07T17:43:08.082Z,19.82
2019-05-07T17:45:44.002Z,21.33
2019-05-07T17:48:19.886Z,27.73
2019-05-07T17:51:00.290Z,24.87
2019-05-07T17:53:36.208Z,25.65
2019-05-07T17:56:12.805Z,25.85
2019-05-07T17:58:48.783Z,26.82
2019-05-07T18:01:26.269Z,17.20
2019-05-07T18:04:02.929Z,17.50
2019-05-07T18:06:39.164Z,18.42
2019-05-07T18:09:15.311Z,20.40
2019-05-07T18:11:52.255Z,26.00
2019-05-07T18:14:31.958Z,24.45
2019-05-07T18:17:15.152Z,18.55
2019-05-07T18:19:51.122Z,38.05
2019-05-07T18:22:27.081Z,25.45
2019-05-07T18:25:03.603Z,22.65
2019-05-07T18:27:39.608Z,48.60
2019-05-07T18:30:15.860Z,32.17
2019-05-07T18:32:53.353Z,59.93
2019-05-07T18:35:29.309Z,128.05
2019-05-07T18:38:05.377Z,42.40
2019-05-07T18:40:42.162Z,30.12
2019-05-07T18:43:18.406Z,47.50
2019-05-07T18:45:54.365Z,45.98
2019-05-07T18:48:30.430Z,43.05
2019-05-07T18:51:06.397Z,44.90
2019-05-07T18:53:42.653Z,40.67
2019-05-07T18:56:18.702Z,40.60
2019-05-07T18:58:54.668Z,36.42
2019-05-07T19:01:32.821Z,40.85
2019-05-07T19:04:09.027Z,36.63
2019-05-07T19:06:44.996Z,33.20
2019-05-07T19:09:22.517Z,37.93
2019-05-07T19:11:58.662Z,36.93
2019-05-07T19:14:34.706Z,38.00
2019-05-07T19:17:12.208Z,37.58
2019-05-07T19:19:48.144Z,43.75
2019-05-07T19:22:24.102Z,44.40
2019-05-07T19:25:00.075Z,43.38
2019-05-07T19:27:36.025Z,35.05
2019-05-07T19:30:13.046Z,36.20
2019-05-07T19:32:49.362Z,32.03
2019-05-07T19:35:25.429Z,31.42
2019-05-07T19:38:02.860Z,33.05
2019-05-07T19:40:39.071Z,31.97
2019-05-07T19:43:16.266Z,33.38
2019-05-07T19:45:52.495Z,32.58
2019-05-07T19:48:28.692Z,29.12
2019-05-07T19:51:04.647Z,32.70
2019-05-07T19:53:41.997Z,33.95
2019-05-07T19:56:21.911Z,40.75
2019-05-07T19:58:58.135Z,47.55
2019-05-07T20:01:35.845Z,39.30
2019-05-07T20:04:13.260Z,37.03
2019-05-07T20:06:49.388Z,35.52
2019-05-07T20:09:26.992Z,37.53
2019-05-07T20:12:03.313Z,43.08
2019-05-07T20:14:39.222Z,50.10
2019-05-07T20:17:15.157Z,43.45
2019-05-07T20:19:52.721Z,41.88
2019-05-07T20:22:28.679Z,40.23
2019-05-07T20:25:15.406Z,39.70
2019-05-07T20:27:44.309Z,39.38
2019-05-07T20:30:22.737Z,44.03
2019-05-07T20:32:58.063Z,43.65
2019-05-07T20:35:37.305Z,41.20
2019-05-07T20:38:11.727Z,43.23
2019-05-07T20:40:47.672Z,46.95
2019-05-07T20:43:23.846Z,53.42
2019-05-07T20:45:59.903Z,55.98
2019-05-07T20:48:35.806Z,54.33
2019-05-07T20:51:12.504Z,51.33
2019-05-07T20:54:05.305Z,55.98
2019-05-07T20:56:42.833Z,53.42
2019-05-07T20:59:18.739Z,46.28
2019-05-07T21:01:54.690Z,44.45
2019-05-07T21:04:32.823Z,45.00
2019-05-07T21:07:11.579Z,49.50
2019-05-07T21:09:46.552Z,51.18
2019-05-07T21:12:22.743Z,54.08
2019-05-07T21:14:59.193Z,52.78
2019-05-07T21:17:35.128Z,51.53
2019-05-07T21:20:12.415Z,50.92
2019-05-07T21:22:48.373Z,48.55
2019-05-07T21:25:24.327Z,55.35
2019-05-07T21:28:02.123Z,55.28
2019-05-07T21:30:37.980Z,53.23
2019-05-07T21:33:13.948Z,49.18
2019-05-07T21:35:52.087Z,51.13
2019-05-07T21:38:28.516Z,55.08
2019-05-07T21:41:04.472Z,62.08
2019-05-07T21:43:43.063Z,54.42
2019-05-07T21:46:18.121Z,47.55
2019-05-07T21:48:54.090Z,50.05
2019-05-07T21:51:29.989Z,54.13
2019-05-07T21:54:13.570Z,59.25
2019-05-07T21:56:52.221Z,52.15
2019-05-07T21:59:35.011Z,46.30
2019-05-07T22:02:15.990Z,42.43
2019-05-07T22:04:52.899Z,44.25
2019-05-07T22:07:29.132Z,40.50
2019-05-07T22:10:07.648Z,38.17
2019-05-07T22:12:43.606Z,37.67
2019-05-07T22:15:22.481Z,36.20
2019-05-07T22:17:58.589Z,34.70
2019-05-07T22:20:34.545Z,33.45
2019-05-07T22:23:10.490Z,32.83
2019-05-07T22:25:46.454Z,30.25
2019-05-07T22:28:22.596Z,29.77
2019-05-07T22:31:02.203Z,31.45
2019-05-07T22:33:39.335Z,32.88
2019-05-07T22:36:15.299Z,32.75
2019-05-07T22:39:09.269Z,30.90
2019-05-07T22:41:46.772Z,28.23
2019-05-07T22:44:26.376Z,27.67
2019-05-07T22:47:03.284Z,28.77
2019-05-07T22:49:39.250Z,28.30
2019-05-07T22:52:15.196Z,29.07
2019-05-07T22:54:51.162Z,26.90
2019-05-07T22:57:28.644Z,24.32
2019-05-07T23:00:07.683Z,24.63
2019-05-07T23:02:45.174Z,23.87
2019-05-07T23:05:23.002Z,24.10
2019-05-07T23:07:58.828Z,24.40
2019-05-07T23:10:34.783Z,23.70
2019-05-07T23:13:12.840Z,25.50
2019-05-07T23:15:48.314Z,25.77
2019-05-07T23:18:24.289Z,26.37
2019-05-07T23:21:00.247Z,26.50
2019-05-07T23:23:36.398Z,27.82
2019-05-07T23:26:14.768Z,27.95
2019-05-07T23:28:51.879Z,31.52
2019-05-07T23:31:27.762Z,34.80
2019-05-07T23:34:03.717Z,34.92
2019-05-07T23:36:39.666Z,37.20
2019-05-07T23:39:17.154Z,41.48
2019-05-07T23:42:03.883Z,40.40
2019-05-07T23:44:41.431Z,36.30
2019-05-07T23:47:17.518Z,35.98
2019-05-07T23:49:53.486Z,32.13
2019-05-07T23:52:29.426Z,32.70
2019-05-07T23:55:06.148Z,33.85
2019-05-07T23:57:43.082Z,35.70
